sensor_id;sensor_type;location;lat;lon;timestamp;pressure;altitude;pressure_sealevel;temperature;humidity
9746;BME280;4912;50.836;12.958;2023-04-15T00:01:17;96711.81;;;8.62;100.00
9746;BME280;4912;50.836;12.958;2023-04-15T00:03:49;96699.03;;;8.59;100.00
9746;BME280;4912;50.836;12.958;2023-04-15T00:06:23;96703.56;;;8.62;100.00
9746;BME280;4912;50.836;12.958;2023-04-15T00:08:54;96698.03;;;8.62;100.00
9746;BME280;4912;50.836;12.958;2023-04-15T00:11:25;96700.78;;;8.62;100.00
9746;BME280;4912;50.836;12.958;2023-04-15T00:13:55;96692.25;;;8.60;100.00
9746;BME280;4912;50.836;12.958;2023-04-15T00:16:26;96691.97;;;8.58;100.00
9746;BME280;4912;50.836;12.958;2023-04-15T00:18:56;96696.03;;;8.63;100.00
9746;BME280;4912;50.836;12.958;2023-04-15T00:21:29;96687.28;;;8.65;100.00
9746;BME280;4912;50.836;12.958;2023-04-15T00:24:00;96687.63;;;8.72;100.00
9746;BME280;4912;50.836;12.958;2023-04-15T00:26:30;96684.88;;;8.72;100.00
9746;BME280;4912;50.836;12.958;2023-04-15T00:29:02;96684.13;;;8.72;100.00
9746;BME280;4912;50.836;12.958;2023-04-15T00:31:35;96684.13;;;8.72;100.00
9746;BME280;4912;50.836;12.958;2023-04-15T00:34:05;96685.84;;;8.69;100.00
9746;BME280;4912;50.836;12.958;2023-04-15T00:36:38;96680.34;;;8.69;100.00
9746;BME280;4912;50.836;12.958;2023-04-15T00:39:09;96679.97;;;8.61;100.00
9746;BME280;4912;50.836;12.958;2023-04-15T00:41:41;96683.97;;;8.60;100.00
9746;BME280;4912;50.836;12.958;2023-04-15T00:44:12;96678.75;;;8.62;100.00
9746;BME280;4912;50.836;12.958;2023-04-15T00:46:44;96681.78;;;8.65;100.00
9746;BME280;4912;50.836;12.958;2023-04-15T00:49:17;96680.25;;;8.63;100.00
9746;BME280;4912;50.836;12.958;2023-04-15T00:51:50;96678.25;;;8.64;100.00
9746;BME280;4912;50.836;12.958;2023-04-15T00:54:20;96680.81;;;8.68;100.00
9746;BME280;4912;50.836;12.958;2023-04-15T00:56:50;96667.03;;;8.68;100.00
9746;BME280;4912;50.836;12.958;2023-04-15T00:59:21;96669.31;;;8.69;100.00
9746;BME280;4912;50.836;12.958;2023-04-15T01:01:51;96673.50;;;8.65;100.00
9746;BME280;4912;50.836;12.958;2023-04-15T01:04:22;96661.50;;;8.68;100.00
9746;BME280;4912;50.836;12.958;2023-04-15T01:06:56;96667.31;;;8.70;100.00
9746;BME280;4912;50.836;12.958;2023-04-15T01:09:26;96661.09;;;8.75;100.00
9746;BME280;4912;50.836;12.958;2023-04-15T01:11:56;96662.81;;;8.72;100.00
9746;BME280;4912;50.836;12.958;2023-04-15T01:14:28;96663.09;;;8.74;100.00
9746;BME280;4912;50.836;12.958;2023-04-15T01:16:59;96667.59;;;8.72;100.00
9746;BME280;4912;50.836;12.958;2023-04-15T01:19:29;96658.22;;;8.63;100.00
9746;BME280;4912;50.836;12.958;2023-04-15T01:22:05;96659.72;;;8.65;100.00
9746;BME280;4912;50.836;12.958;2023-04-15T01:24:37;96659.44;;;8.62;100.00
9746;BME280;4912;50.836;12.958;2023-04-15T01:27:10;96646.41;;;8.63;100.00
9746;BME280;4912;50.836;12.958;2023-04-15T01:29:40;96646.88;;;8.61;100.00
9746;BME280;4912;50.836;12.958;2023-04-15T01:32:11;96642.91;;;8.62;100.00
9746;BME280;4912;50.836;12.958;2023-04-15T01:34:41;96640.91;;;8.63;100.00
9746;BME280;4912;50.836;12.958;2023-04-15T01:37:11;96635.69;;;8.65;100.00
9746;BME280;4912;50.836;12.958;2023-04-15T01:39:42;96626.34;;;8.62;100.00
9746;BME280;4912;50.836;12.958;2023-04-15T01:42:15;96632.34;;;8.61;100.00
9746;BME280;4912;50.836;12.958;2023-04-15T01:44:45;96624.06;;;8.61;100.00
9746;BME280;4912;50.836;12.958;2023-04-15T01:47:15;96621.53;;;8.57;100.00
9746;BME280;4912;50.836;12.958;2023-04-15T01:49:46;96620.84;;;8.62;100.00
9746;BME280;4912;50.836;12.958;2023-04-15T01:52:16;96613.28;;;8.57;100.00
9746;BME280;4912;50.836;12.958;2023-04-15T01:54:47;96614.44;;;8.51;100.00
9746;BME280;4912;50.836;12.958;2023-04-15T01:57:20;96616.16;;;8.48;100.00
9746;BME280;4912;50.836;12.958;2023-04-15T01:59:50;96621.41;;;8.46;100.00
9746;BME280;4912;50.836;12.958;2023-04-15T02:02:21;96614.09;;;8.43;100.00
9746;BME280;4912;50.836;12.958;2023-04-15T02:04:53;96613.53;;;8.39;100.00
9746;BME280;4912;50.836;12.958;2023-04-15T02:07:24;96603.63;;;8.47;100.00
9746;BME280;4912;50.836;12.958;2023-04-15T02:09:58;96601.06;;;8.44;100.00
9746;BME280;4912;50.836;12.958;2023-04-15T02:12:31;96606.41;;;8.47;100.00
9746;BME280;4912;50.836;12.958;2023-04-15T02:15:02;96599.84;;;8.45;100.00
9746;BME280;4912;50.836;12.958;2023-04-15T02:17:33;96597.56;;;8.43;100.00
9746;BME280;4912;50.836;12.958;2023-04-15T02:20:04;96591.84;;;8.47;100.00
9746;BME280;4912;50.836;12.958;2023-04-15T02:22:39;96594.09;;;8.48;100.00
9746;BME280;4912;50.836;12.958;2023-04-15T02:25:09;96588.59;;;8.48;100.00
9746;BME280;4912;50.836;12.958;2023-04-15T02:27:42;96586.88;;;8.51;100.00
9746;BME280;4912;50.836;12.958;2023-04-15T02:30:14;96592.38;;;8.51;100.00
9746;BME280;4912;50.836;12.958;2023-04-15T02:32:45;96590.09;;;8.49;100.00
9746;BME280;4912;50.836;12.958;2023-04-15T02:35:15;96591.63;;;8.50;100.00
9746;BME280;4912;50.836;12.958;2023-04-15T02:37:46;96595.63;;;8.49;100.00
9746;BME280;4912;50.836;12.958;2023-04-15T02:40:17;96592.44;;;8.56;100.00
9746;BME280;4912;50.836;12.958;2023-04-15T02:42:50;96596.72;;;8.57;100.00
9746;BME280;4912;50.836;12.958;2023-04-15T02:45:20;96589.69;;;8.56;100.00
9746;BME280;4912;50.836;12.958;2023-04-15T02:47:53;96598.19;;;8.53;100.00
9746;BME280;4912;50.836;12.958;2023-04-15T02:50:24;96597.91;;;8.51;100.00
9746;BME280;4912;50.836;12.958;2023-04-15T02:52:55;96595.69;;;8.55;100.00
9746;BME280;4912;50.836;12.958;2023-04-15T02:55:28;96601.69;;;8.53;100.00
9746;BME280;4912;50.836;12.958;2023-04-15T02:58:01;96609.53;;;8.60;100.00
9746;BME280;4912;50.836;12.958;2023-04-15T03:00:31;96609.53;;;8.60;100.00
9746;BME280;4912;50.836;12.958;2023-04-15T03:03:03;96614.78;;;8.58;100.00
9746;BME280;4912;50.836;12.958;2023-04-15T03:05:35;96610.34;;;8.67;100.00
9746;BME280;4912;50.836;12.958;2023-04-15T03:08:06;96616.31;;;8.59;100.00
9746;BME280;4912;50.836;12.958;2023-04-15T03:10:37;96601.53;;;8.62;100.00
9746;BME280;4912;50.836;12.958;2023-04-15T03:13:10;96602.59;;;8.65;100.00
9746;BME280;4912;50.836;12.958;2023-04-15T03:15:40;96607.34;;;8.65;100.00
9746;BME280;4912;50.836;12.958;2023-04-15T03:18:10;96600.03;;;8.61;100.00
9746;BME280;4912;50.836;12.958;2023-04-15T03:20:41;96608.53;;;8.58;100.00
9746;BME280;4912;50.836;12.958;2023-04-15T03:23:12;96600.44;;;8.54;100.00
9746;BME280;4912;50.836;12.958;2023-04-15T03:25:43;96600.44;;;8.54;100.00
9746;BME280;4912;50.836;12.958;2023-04-15T03:28:16;96596.72;;;8.57;100.00
9746;BME280;4912;50.836;12.958;2023-04-15T03:30:50;96592.22;;;8.60;100.00
9746;BME280;4912;50.836;12.958;2023-04-15T03:33:20;96591.22;;;8.57;100.00
9746;BME280;4912;50.836;12.958;2023-04-15T03:35:51;96590.94;;;8.55;100.00
9746;BME280;4912;50.836;12.958;2023-04-15T03:38:22;96593.69;;;8.55;100.00
9746;BME280;4912;50.836;12.958;2023-04-15T03:40:52;96597.50;;;8.58;100.00
9746;BME280;4912;50.836;12.958;2023-04-15T03:43:25;96595.75;;;8.60;100.00
9746;BME280;4912;50.836;12.958;2023-04-15T03:45:56;96595.00;;;8.60;100.00
9746;BME280;4912;50.836;12.958;2023-04-15T03:48:27;96588.75;;;8.59;100.00
9746;BME280;4912;50.836;12.958;2023-04-15T03:50:57;96584.47;;;8.58;100.00
9746;BME280;4912;50.836;12.958;2023-04-15T03:53:28;96589.41;;;8.54;100.00
9746;BME280;4912;50.836;12.958;2023-04-15T03:55:58;96587.63;;;8.51;100.00
9746;BME280;4912;50.836;12.958;2023-04-15T03:58:31;96587.63;;;8.51;100.00
9746;BME280;4912;50.836;12.958;2023-04-15T04:01:01;96581.16;;;8.54;100.00
9746;BME280;4912;50.836;12.958;2023-04-15T04:03:32;96587.22;;;8.58;100.00
9746;BME280;4912;50.836;12.958;2023-04-15T04:06:03;96579.84;;;8.50;100.00
9746;BME280;4912;50.836;12.958;2023-04-15T04:08:33;96579.09;;;8.49;100.00
9746;BME280;4912;50.836;12.958;2023-04-15T04:11:04;96584.59;;;8.49;100.00
9746;BME280;4912;50.836;12.958;2023-04-15T04:13:36;96586.41;;;8.52;100.00
9746;BME280;4912;50.836;12.958;2023-04-15T04:16:07;96590.31;;;8.46;100.00
9746;BME280;4912;50.836;12.958;2023-04-15T04:18:37;96594.09;;;8.48;100.00
9746;BME280;4912;50.836;12.958;2023-04-15T04:21:07;96595.09;;;8.45;100.00
9746;BME280;4912;50.836;12.958;2023-04-15T04:23:38;96594.31;;;8.45;100.00
9746;BME280;4912;50.836;12.958;2023-04-15T04:26:08;96600.38;;;8.49;100.00
9746;BME280;4912;50.836;12.958;2023-04-15T04:28:41;96598.66;;;8.51;100.00
9746;BME280;4912;50.836;12.958;2023-04-15T04:31:11;96596.72;;;8.57;100.00
9746;BME280;4912;50.836;12.958;2023-04-15T04:33:42;96594.09;;;8.48;100.00
9746;BME280;4912;50.836;12.958;2023-04-15T04:36:12;96598.38;;;8.49;100.00
9746;BME280;4912;50.836;12.958;2023-04-15T04:38:42;96604.66;;;8.50;100.00
9746;BME280;4912;50.836;12.958;2023-04-15T04:41:13;96609.16;;;8.47;100.00
9746;BME280;4912;50.836;12.958;2023-04-15T04:43:46;96599.13;;;8.50;100.00
9746;BME280;4912;50.836;12.958;2023-04-15T04:46:16;96595.63;;;8.49;100.00
9746;BME280;4912;50.836;12.958;2023-04-15T04:48:47;96595.63;;;8.49;100.00
9746;BME280;4912;50.836;12.958;2023-04-15T04:51:17;96598.13;;;8.47;100.00
9746;BME280;4912;50.836;12.958;2023-04-15T04:53:48;96602.19;;;8.52;100.00
9746;BME280;4912;50.836;12.958;2023-04-15T04:56:18;96594.09;;;8.48;100.00
9746;BME280;4912;50.836;12.958;2023-04-15T04:58:51;96596.66;;;8.52;100.00
9746;BME280;4912;50.836;12.958;2023-04-15T05:01:21;96592.53;;;8.42;100.00
9746;BME280;4912;50.836;12.958;2023-04-15T05:03:52;96590.75;;;8.39;100.00
9746;BME280;4912;50.836;12.958;2023-04-15T05:06:23;96586.41;;;8.32;100.00
9746;BME280;4912;50.836;12.958;2023-04-15T05:08:53;96585.63;;;8.32;100.00
9746;BME280;4912;50.836;12.958;2023-04-15T05:11:24;96582.41;;;8.33;100.00
9746;BME280;4912;50.836;12.958;2023-04-15T05:13:57;96584.22;;;8.36;100.00
9746;BME280;4912;50.836;12.958;2023-04-15T05:16:28;96590.47;;;8.37;100.00
9746;BME280;4912;50.836;12.958;2023-04-15T05:18:58;96586.53;;;8.43;100.00
9746;BME280;4912;50.836;12.958;2023-04-15T05:21:28;96590.88;;;8.50;100.00
9746;BME280;4912;50.836;12.958;2023-04-15T05:23:59;96579.84;;;8.50;100.00
9746;BME280;4912;50.836;12.958;2023-04-15T05:26:30;96581.44;;;8.56;100.00
9746;BME280;4912;50.836;12.958;2023-04-15T05:29:03;96601.25;;;8.60;100.00
9746;BME280;4912;50.836;12.958;2023-04-15T05:31:33;96601.53;;;8.62;100.00
9746;BME280;4912;50.836;12.958;2023-04-15T05:34:04;96611.69;;;8.71;100.00
9746;BME280;4912;50.836;12.958;2023-04-15T05:36:35;96616.22;;;8.74;100.00
9746;BME280;4912;50.836;12.958;2023-04-15T05:39:05;96614.09;;;8.63;100.00
9746;BME280;4912;50.836;12.958;2023-04-15T05:41:35;96596.72;;;8.57;100.00
9746;BME280;4912;50.836;12.958;2023-04-15T05:44:08;96599.00;;;8.59;100.00
9746;BME280;4912;50.836;12.958;2023-04-15T05:46:38;96593.69;;;8.55;100.00
9746;BME280;4912;50.836;12.958;2023-04-15T05:49:09;96592.16;;;8.54;100.00
9746;BME280;4912;50.836;12.958;2023-04-15T05:51:39;96593.56;;;8.65;100.00
9746;BME280;4912;50.836;12.958;2023-04-15T05:54:09;96619.13;;;8.65;100.00
9746;BME280;4912;50.836;12.958;2023-04-15T05:56:39;96616.22;;;8.74;100.00
9746;BME280;4912;50.836;12.958;2023-04-15T05:59:12;96625.94;;;8.70;100.00
9746;BME280;4912;50.836;12.958;2023-04-15T06:01:43;96637.72;;;8.70;100.00
9746;BME280;4912;50.836;12.958;2023-04-15T06:04:13;96626.56;;;8.59;100.00
9746;BME280;4912;50.836;12.958;2023-04-15T06:06:44;96626.56;;;8.59;100.00
9746;BME280;4912;50.836;12.958;2023-04-15T06:09:14;96627.47;;;8.71;100.00
9746;BME280;4912;50.836;12.958;2023-04-15T06:11:44;96625.19;;;8.49;100.00
9746;BME280;4912;50.836;12.958;2023-04-15T06:14:17;96627.00;;;8.52;100.00
9746;BME280;4912;50.836;12.958;2023-04-15T06:16:47;96626.34;;;8.62;100.00
9746;BME280;4912;50.836;12.958;2023-04-15T06:19:18;96627.81;;;8.58;100.00
9746;BME280;4912;50.836;12.958;2023-04-15T06:21:48;96642.91;;;8.62;100.00
9746;BME280;4912;50.836;12.958;2023-04-15T06:24:18;96646.88;;;8.61;100.00
9746;BME280;4912;50.836;12.958;2023-04-15T06:26:48;96637.47;;;8.48;100.00
9746;BME280;4912;50.836;12.958;2023-04-15T06:29:21;96634.63;;;8.62;100.00
9746;BME280;4912;50.836;12.958;2023-04-15T06:31:52;96635.44;;;8.69;100.00
9746;BME280;4912;50.836;12.958;2023-04-15T06:34:22;96625.88;;;8.64;100.00
9746;BME280;4912;50.836;12.958;2023-04-15T06:36:53;96632.97;;;8.71;100.00
9746;BME280;4912;50.836;12.958;2023-04-15T06:39:23;96626.81;;;8.81;100.00
9746;BME280;4912;50.836;12.958;2023-04-15T06:41:53;96631.59;;;8.81;100.00
9746;BME280;4912;50.836;12.958;2023-04-15T06:44:26;96641.09;;;8.80;100.00
9746;BME280;4912;50.836;12.958;2023-04-15T06:46:59;96639.56;;;8.79;100.00
9746;BME280;4912;50.836;12.958;2023-04-15T06:49:29;96632.41;;;8.87;100.00
9746;BME280;4912;50.836;12.958;2023-04-15T06:51:59;96642.91;;;8.83;100.00
9746;BME280;4912;50.836;12.958;2023-04-15T06:54:30;96643.38;;;8.81;100.00
9746;BME280;4912;50.836;12.958;2023-04-15T06:57:00;96641.78;;;8.75;100.00
9746;BME280;4912;50.836;12.958;2023-04-15T06:59:33;96649.53;;;8.71;100.00
9746;BME280;4912;50.836;12.958;2023-04-15T07:02:04;96649.16;;;8.63;100.00
9746;BME280;4912;50.836;12.958;2023-04-15T07:04:34;96647.66;;;8.82;100.00
9746;BME280;4912;50.836;12.958;2023-04-15T07:07:06;96652.66;;;8.84;100.00
9746;BME280;4912;50.836;12.958;2023-04-15T07:09:36;96651.72;;;8.87;100.00
9746;BME280;4912;50.836;12.958;2023-04-15T07:12:07;96650.38;;;9.02;100.00
9746;BME280;4912;50.836;12.958;2023-04-15T07:14:40;96647.47;;;9.12;100.00
9746;BME280;4912;50.836;12.958;2023-04-15T07:17:10;96654.88;;;9.00;100.00
9746;BME280;4912;50.836;12.958;2023-04-15T07:19:41;96654.25;;;8.90;100.00
9746;BME280;4912;50.836;12.958;2023-04-15T07:22:11;96652.41;;;8.61;100.00
9746;BME280;4912;50.836;12.958;2023-04-15T07:24:41;96656.91;;;8.59;100.00
9746;BME280;4912;50.836;12.958;2023-04-15T07:27:12;96662.75;;;8.67;100.00
9746;BME280;4912;50.836;12.958;2023-04-15T07:29:45;96649.94;;;8.63;100.00
9746;BME280;4912;50.836;12.958;2023-04-15T07:32:18;96658.63;;;8.77;100.00
9746;BME280;4912;50.836;12.958;2023-04-15T07:34:48;96666.59;;;8.75;100.00
9746;BME280;4912;50.836;12.958;2023-04-15T07:37:19;96670.03;;;8.90;100.00
9746;BME280;4912;50.836;12.958;2023-04-15T07:39:50;96669.78;;;8.88;100.00
9746;BME280;4912;50.836;12.958;2023-04-15T07:42:20;96678.38;;;8.95;100.00
9746;BME280;4912;50.836;12.958;2023-04-15T07:44:53;96677.91;;;8.97;100.00
9746;BME280;4912;50.836;12.958;2023-04-15T07:47:23;96681.88;;;8.96;100.00
9746;BME280;4912;50.836;12.958;2023-04-15T07:49:54;96676.59;;;8.92;100.00
9746;BME280;4912;50.836;12.958;2023-04-15T07:52:24;96682.59;;;8.91;100.00
9746;BME280;4912;50.836;12.958;2023-04-15T07:54:54;96681.22;;;9.01;100.00
9746;BME280;4912;50.836;12.958;2023-04-15T07:57:25;96679.56;;;8.89;100.00
9746;BME280;4912;50.836;12.958;2023-04-15T07:59:58;96671.41;;;9.00;100.00
9746;BME280;4912;50.836;12.958;2023-04-15T08:02:38;96673.19;;;9.03;100.00
9746;BME280;4912;50.836;12.958;2023-04-15T08:05:09;96667.09;;;9.19;100.00
9746;BME280;4912;50.836;12.958;2023-04-15T08:07:40;96678.03;;;9.34;100.00
9746;BME280;4912;50.836;12.958;2023-04-15T08:10:10;96677.81;;;9.37;100.00
9746;BME280;4912;50.836;12.958;2023-04-15T08:12:40;96674.84;;;9.41;100.00
9746;BME280;4912;50.836;12.958;2023-04-15T08:15:17;96673.22;;;9.29;100.00
9746;BME280;4912;50.836;12.958;2023-04-15T08:17:48;96679.00;;;9.31;100.00
9746;BME280;4912;50.836;12.958;2023-04-15T08:20:18;96675.38;;;9.45;100.00
9746;BME280;4912;50.836;12.958;2023-04-15T08:22:49;96674.09;;;9.40;100.00
9746;BME280;4912;50.836;12.958;2023-04-15T08:25:19;96675.75;;;9.32;100.00
9746;BME280;4912;50.836;12.958;2023-04-15T08:27:50;96680.84;;;9.39;100.00
9746;BME280;4912;50.836;12.958;2023-04-15T08:30:23;96687.56;;;9.59;100.00
9746;BME280;4912;50.836;12.958;2023-04-15T08:32:53;96701.94;;;9.68;100.00
9746;BME280;4912;50.836;12.958;2023-04-15T08:35:24;96707.09;;;9.81;100.00
9746;BME280;4912;50.836;12.958;2023-04-15T08:37:54;96703.94;;;9.94;100.00
9746;BME280;4912;50.836;12.958;2023-04-15T08:40:24;96699.97;;;10.00;100.00
9746;BME280;4912;50.836;12.958;2023-04-15T08:42:59;96711.28;;;10.02;100.00
9746;BME280;4912;50.836;12.958;2023-04-15T08:45:35;96710.69;;;10.18;100.00
9746;BME280;4912;50.836;12.958;2023-04-15T08:48:07;96710.09;;;10.14;100.00
9746;BME280;4912;50.836;12.958;2023-04-15T08:50:39;96717.75;;;10.25;100.00
9746;BME280;4912;50.836;12.958;2023-04-15T08:53:09;96712.81;;;10.35;99.62
9746;BME280;4912;50.836;12.958;2023-04-15T08:55:42;96712.94;;;10.57;97.95
9746;BME280;4912;50.836;12.958;2023-04-15T08:58:14;96717.75;;;10.67;97.31
9746;BME280;4912;50.836;12.958;2023-04-15T09:00:48;96711.47;;;10.67;96.36
9746;BME280;4912;50.836;12.958;2023-04-15T09:03:18;96719.19;;;10.52;96.96
9746;BME280;4912;50.836;12.958;2023-04-15T09:05:49;96721.56;;;10.70;97.58
9746;BME280;4912;50.836;12.958;2023-04-15T09:08:19;96718.81;;;10.76;95.93
9746;BME280;4912;50.836;12.958;2023-04-15T09:10:50;96721.63;;;10.81;95.51
9746;BME280;4912;50.836;12.958;2023-04-15T09:13:20;96713.03;;;10.79;95.24
9746;BME280;4912;50.836;12.958;2023-04-15T09:15:53;96721.81;;;10.72;95.65
9746;BME280;4912;50.836;12.958;2023-04-15T09:18:27;96726.41;;;10.86;96.40
9746;BME280;4912;50.836;12.958;2023-04-15T09:21:05;96725.16;;;10.87;94.41
9746;BME280;4912;50.836;12.958;2023-04-15T09:23:37;96724.22;;;11.01;93.01
9746;BME280;4912;50.836;12.958;2023-04-15T09:26:08;96728.03;;;11.09;93.49
9746;BME280;4912;50.836;12.958;2023-04-15T09:28:42;96740.63;;;11.16;93.03
9746;BME280;4912;50.836;12.958;2023-04-15T09:31:15;96742.44;;;11.25;92.36
9746;BME280;4912;50.836;12.958;2023-04-15T09:33:53;96736.41;;;11.32;92.50
9746;BME280;4912;50.836;12.958;2023-04-15T09:36:24;96724.66;;;11.54;89.95
9746;BME280;4912;50.836;12.958;2023-04-15T09:38:55;96733.00;;;11.76;90.01
9746;BME280;4912;50.836;12.958;2023-04-15T09:41:26;96734.53;;;11.77;86.06
9746;BME280;4912;50.836;12.958;2023-04-15T09:43:57;96745.50;;;11.49;87.19
9746;BME280;4912;50.836;12.958;2023-04-15T09:46:42;96745.50;;;11.43;88.78
9746;BME280;4912;50.836;12.958;2023-04-15T09:49:14;96753.94;;;11.77;87.10
9746;BME280;4912;50.836;12.958;2023-04-15T09:51:45;96745.38;;;12.03;87.47
9746;BME280;4912;50.836;12.958;2023-04-15T09:54:34;96744.88;;;11.99;86.94
9746;BME280;4912;50.836;12.958;2023-04-15T09:57:07;96744.13;;;11.98;85.56
9746;BME280;4912;50.836;12.958;2023-04-15T09:59:39;96744.38;;;11.95;85.20
9746;BME280;4912;50.836;12.958;2023-04-15T10:02:11;96742.59;;;11.92;85.54
9746;BME280;4912;50.836;12.958;2023-04-15T10:04:42;96747.66;;;11.93;85.40
9746;BME280;4912;50.836;12.958;2023-04-15T10:07:14;96749.16;;;11.88;84.62
9746;BME280;4912;50.836;12.958;2023-04-15T10:09:46;96752.69;;;11.89;85.92
9746;BME280;4912;50.836;12.958;2023-04-15T10:12:18;96749.16;;;11.88;85.49
9746;BME280;4912;50.836;12.958;2023-04-15T10:14:51;96754.69;;;11.77;85.92
9746;BME280;4912;50.836;12.958;2023-04-15T10:17:25;96756.88;;;11.57;87.46
9746;BME280;4912;50.836;12.958;2023-04-15T10:19:59;96769.19;;;11.56;87.62
9746;BME280;4912;50.836;12.958;2023-04-15T10:22:30;96765.16;;;11.51;90.21
9746;BME280;4912;50.836;12.958;2023-04-15T10:25:01;96759.91;;;11.53;88.59
9746;BME280;4912;50.836;12.958;2023-04-15T10:27:31;96764.41;;;11.50;87.08
9746;BME280;4912;50.836;12.958;2023-04-15T10:30:03;96772.53;;;11.71;86.52
9746;BME280;4912;50.836;12.958;2023-04-15T10:32:37;96778.34;;;11.78;87.04
9746;BME280;4912;50.836;12.958;2023-04-15T10:35:08;96775.09;;;11.91;85.60
9746;BME280;4912;50.836;12.958;2023-04-15T10:37:39;96776.38;;;11.96;86.96
9746;BME280;4912;50.836;12.958;2023-04-15T10:42:57;96785.63;;;11.70;84.93
9746;BME280;4912;50.836;12.958;2023-04-15T10:45:31;96791.72;;;11.85;84.53
9746;BME280;4912;50.836;12.958;2023-04-15T10:48:06;96789.72;;;11.86;83.47
9746;BME280;4912;50.836;12.958;2023-04-15T10:50:37;96785.94;;;11.83;83.57
9746;BME280;4912;50.836;12.958;2023-04-15T10:53:09;96785.63;;;11.70;83.95
9746;BME280;4912;50.836;12.958;2023-04-15T10:55:39;96784.16;;;11.75;84.45
9746;BME280;4912;50.836;12.958;2023-04-15T10:58:10;96790.66;;;11.72;86.87
9746;BME280;4912;50.836;12.958;2023-04-15T11:00:40;96788.94;;;11.74;87.42
9746;BME280;4912;50.836;12.958;2023-04-15T11:06:11;96799.97;;;11.69;88.29
9746;BME280;4912;50.836;12.958;2023-04-15T11:08:55;96793.72;;;11.79;86.52
9746;BME280;4912;50.836;12.958;2023-04-15T11:14:29;96794.00;;;11.81;85.60
9746;BME280;4912;50.836;12.958;2023-04-15T11:17:01;96809.09;;;11.86;85.62
9746;BME280;4912;50.836;12.958;2023-04-15T11:19:38;96801.25;;;11.73;86.06
9746;BME280;4912;50.836;12.958;2023-04-15T11:22:09;96808.00;;;11.67;85.82
9746;BME280;4912;50.836;12.958;2023-04-15T11:24:46;96808.25;;;11.58;86.99
9746;BME280;4912;50.836;12.958;2023-04-15T11:27:21;96810.06;;;11.66;89.41
9746;BME280;4912;50.836;12.958;2023-04-15T11:29:51;96815.13;;;11.79;89.72
9746;BME280;4912;50.836;12.958;2023-04-15T11:32:22;96811.09;;;11.74;88.53
9746;BME280;4912;50.836;12.958;2023-04-15T11:34:55;96814.16;;;11.87;89.20
9746;BME280;4912;50.836;12.958;2023-04-15T11:37:28;96817.69;;;11.94;90.74
9746;BME280;4912;50.836;12.958;2023-04-15T11:40:01;96821.22;;;11.94;88.96
9746;BME280;4912;50.836;12.958;2023-04-15T11:42:31;96818.69;;;11.90;86.23
9746;BME280;4912;50.836;12.958;2023-04-15T11:45:15;96831.53;;;11.77;84.51
9746;BME280;4912;50.836;12.958;2023-04-15T11:47:45;96829.19;;;11.64;84.62
9746;BME280;4912;50.836;12.958;2023-04-15T11:50:18;96841.56;;;11.21;85.10
9746;BME280;4912;50.836;12.958;2023-04-15T11:52:53;96843.66;;;10.89;87.72
9746;BME280;4912;50.836;12.958;2023-04-15T11:55:24;96842.53;;;11.06;88.65
9746;BME280;4912;50.836;12.958;2023-04-15T11:58:04;96841.06;;;11.17;87.22
9746;BME280;4912;50.836;12.958;2023-04-15T12:00:37;96843.59;;;11.26;87.78
9746;BME280;4912;50.836;12.958;2023-04-15T12:08:52;96856.16;;;11.69;84.33
9746;BME280;4912;50.836;12.958;2023-04-15T12:11:27;96858.59;;;11.56;84.74
9746;BME280;4912;50.836;12.958;2023-04-15T12:14:01;96855.66;;;11.71;85.16
9746;BME280;4912;50.836;12.958;2023-04-15T12:16:33;96859.19;;;11.71;85.38
9746;BME280;4912;50.836;12.958;2023-04-15T12:19:15;96859.94;;;11.66;85.59
9746;BME280;4912;50.836;12.958;2023-04-15T12:21:52;96862.50;;;11.75;84.82
9746;BME280;4912;50.836;12.958;2023-04-15T12:24:27;96864.72;;;11.71;84.71
9746;BME280;4912;50.836;12.958;2023-04-15T12:27:01;96864.72;;;11.66;85.11
9746;BME280;4912;50.836;12.958;2023-04-15T12:29:33;96867.47;;;11.60;85.52
9746;BME280;4912;50.836;12.958;2023-04-15T12:32:05;96869.69;;;11.56;85.98
9746;BME280;4912;50.836;12.958;2023-04-15T12:34:36;96879.97;;;11.44;87.46
9746;BME280;4912;50.836;12.958;2023-04-15T12:37:11;96875.22;;;11.56;86.67
9746;BME280;4912;50.836;12.958;2023-04-15T12:39:42;96882.28;;;11.57;86.76
9746;BME280;4912;50.836;12.958;2023-04-15T12:42:15;96880.78;;;11.62;87.00
9746;BME280;4912;50.836;12.958;2023-04-15T12:44:46;96891.13;;;11.61;86.33
9746;BME280;4912;50.836;12.958;2023-04-15T12:47:16;96884.53;;;11.53;85.90
9746;BME280;4912;50.836;12.958;2023-04-15T12:49:46;96892.84;;;11.53;85.24
9746;BME280;4912;50.836;12.958;2023-04-15T12:52:20;96891.13;;;11.61;85.37
9746;BME280;4912;50.836;12.958;2023-04-15T12:54:52;96898.41;;;11.53;85.42
9746;BME280;4912;50.836;12.958;2023-04-15T12:57:22;96895.56;;;11.42;85.61
9746;BME280;4912;50.836;12.958;2023-04-15T12:59:52;96901.13;;;11.42;86.32
9746;BME280;4912;50.836;12.958;2023-04-15T13:02:23;96904.25;;;11.66;86.18
9746;BME280;4912;50.836;12.958;2023-04-15T13:04:54;96904.78;;;11.70;85.09
9746;BME280;4912;50.836;12.958;2023-04-15T13:07:27;96921.94;;;11.74;84.38
9746;BME280;4912;50.836;12.958;2023-04-15T13:09:58;96917.09;;;11.64;85.19
9746;BME280;4912;50.836;12.958;2023-04-15T13:12:28;96914.50;;;11.55;87.28
9746;BME280;4912;50.836;12.958;2023-04-15T13:15:02;96920.31;;;11.57;86.38
9746;BME280;4912;50.836;12.958;2023-04-15T13:17:34;96916.25;;;11.46;86.50
9746;BME280;4912;50.836;12.958;2023-04-15T13:20:05;96921.00;;;11.40;87.03
9746;BME280;4912;50.836;12.958;2023-04-15T13:22:39;96929.81;;;11.44;85.76
9746;BME280;4912;50.836;12.958;2023-04-15T13:25:09;96936.91;;;11.51;85.20
9746;BME280;4912;50.836;12.958;2023-04-15T13:27:40;96938.47;;;11.63;85.33
9746;BME280;4912;50.836;12.958;2023-04-15T13:30:10;96944.69;;;11.47;86.18
9746;BME280;4912;50.836;12.958;2023-04-15T13:32:41;96946.19;;;11.42;86.43
9746;BME280;4912;50.836;12.958;2023-04-15T13:35:15;96943.97;;;11.52;86.88
9746;BME280;4912;50.836;12.958;2023-04-15T13:37:48;96949.38;;;11.30;88.31
9746;BME280;4912;50.836;12.958;2023-04-15T13:40:18;96947.38;;;11.30;88.76
9746;BME280;4912;50.836;12.958;2023-04-15T13:42:49;96954.94;;;11.35;87.71
9746;BME280;4912;50.836;12.958;2023-04-15T13:45:20;96954.91;;;11.30;87.84
9746;BME280;4912;50.836;12.958;2023-04-15T13:47:54;96962.66;;;11.26;88.01